Time;durP1;ratioP1;P1;durP2;ratioP2;P2;SDS_P1;SDS_P2;PMS_P1;PMS_P2;Temp;Humidity;BMP_temperature;BMP_pressure;BME280_temperature;BME280_humidity;BME280_pressure;Samples;Min_cycle;Max_cycle;Signal;HPM_P1;HPM_P2
2021/01/26 00:02:09;;;;;;;8.80;5.37;;;1.60;99.90;;;;;;5011072;28;20764;-71
2021/01/26 00:04:36;;;;;;;9.67;5.80;;;1.60;99.90;;;;;;5013173;28;20221;-71
2021/01/26 00:07:02;;;;;;;9.00;5.53;;;1.70;99.90;;;;;;5012714;28;20290;-72
2021/01/26 00:09:30;;;;;;;8.50;5.43;;;1.70;99.90;;;;;;5013031;28;20325;-72
2021/01/26 00:11:56;;;;;;;8.47;5.60;;;1.70;99.90;;;;;;5008003;28;20213;-71
2021/01/26 00:14:23;;;;;;;10.93;6.80;;;1.70;99.90;;;;;;5013468;28;20613;-72
2021/01/26 00:16:50;;;;;;;9.87;6.10;;;1.70;99.90;;;;;;5012868;28;20229;-70
2021/01/26 00:19:16;;;;;;;10.73;6.40;;;1.70;99.90;;;;;;5006346;28;20208;-71
2021/01/26 00:21:43;;;;;;;12.03;7.13;;;1.70;99.90;;;;;;4997260;28;20297;-70
2021/01/26 00:24:10;;;;;;;13.03;7.67;;;1.70;99.90;;;;;;5008010;28;20221;-69
2021/01/26 00:26:37;;;;;;;11.07;7.13;;;1.70;99.90;;;;;;5002561;28;20243;-69
2021/01/26 00:29:07;;;;;;;12.40;6.87;;;1.70;99.90;;;;;;5012868;28;20670;-71
2021/01/26 00:31:34;;;;;;;12.40;7.53;;;1.70;99.90;;;;;;5005967;28;20718;-70
2021/01/26 00:34:01;;;;;;;14.77;8.10;;;1.70;99.90;;;;;;5012985;28;20203;-70
2021/01/26 00:36:27;;;;;;;12.73;7.77;;;1.70;99.90;;;;;;5012367;28;20679;-69
2021/01/26 00:38:54;;;;;;;14.73;8.77;;;1.70;99.90;;;;;;5011938;28;20204;-69
2021/01/26 00:41:20;;;;;;;15.50;9.13;;;1.70;99.90;;;;;;5010384;28;20294;-70
2021/01/26 00:43:47;;;;;;;17.97;9.67;;;1.70;99.90;;;;;;5007689;28;20664;-71
2021/01/26 00:46:13;;;;;;;16.70;9.43;;;1.70;99.90;;;;;;5001622;28;20234;-70
2021/01/26 00:48:40;;;;;;;17.47;10.13;;;1.80;99.90;;;;;;5012150;28;20682;-71
2021/01/26 00:51:06;;;;;;;17.53;9.57;;;1.80;99.90;;;;;;5012467;28;20207;-71
2021/01/26 00:53:32;;;;;;;14.53;9.57;;;1.80;99.90;;;;;;5004397;28;20275;-71
2021/01/26 00:55:59;;;;;;;17.07;10.43;;;1.80;99.90;;;;;;5012383;28;20230;-71
2021/01/26 00:58:25;;;;;;;17.60;10.50;;;1.80;99.90;;;;;;5011919;28;20705;-69
2021/01/26 01:00:52;;;;;;;16.90;10.13;;;1.70;99.90;;;;;;5000466;28;20624;-70
2021/01/26 01:03:19;;;;;;;19.57;11.03;;;1.70;99.90;;;;;;5012765;28;20211;-71
2021/01/26 01:05:46;;;;;;;19.13;11.77;;;1.80;99.90;;;;;;5012779;28;20261;-70
2021/01/26 01:08:12;;;;;;;20.77;11.37;;;1.80;99.90;;;;;;5012532;28;20265;-70
2021/01/26 01:10:39;;;;;;;20.37;11.13;;;1.80;99.90;;;;;;5012896;28;20215;-70
2021/01/26 01:13:06;;;;;;;17.63;10.73;;;1.80;99.90;;;;;;4999377;28;20208;-71
2021/01/26 01:15:32;;;;;;;18.27;11.10;;;1.80;99.90;;;;;;5009285;28;20306;-70
2021/01/26 01:18:00;;;;;;;21.47;12.20;;;1.80;99.90;;;;;;5004824;28;20265;-70
2021/01/26 01:20:28;;;;;;;19.93;12.57;;;1.80;99.90;;;;;;5008892;28;20208;-70
2021/01/26 01:22:55;;;;;;;23.20;11.33;;;1.80;99.90;;;;;;5005262;28;20204;-71
2021/01/26 01:25:22;;;;;;;20.87;11.00;;;1.80;99.90;;;;;;5012343;28;20322;-71
2021/01/26 01:27:48;;;;;;;20.37;12.07;;;1.80;99.90;;;;;;5012538;28;20207;-70
2021/01/26 01:30:18;;;;;;;21.17;11.47;;;1.80;99.90;;;;;;5009346;28;20215;-71
2021/01/26 01:32:45;;;;;;;20.50;11.37;;;1.80;99.90;;;;;;5008535;28;20260;-70
2021/01/26 01:35:13;;;;;;;19.63;10.73;;;1.80;99.90;;;;;;5016029;28;20227;-71
2021/01/26 01:37:40;;;;;;;20.43;11.73;;;1.80;99.90;;;;;;5002673;28;20620;-71
2021/01/26 01:40:08;;;;;;;20.30;11.30;;;1.80;99.90;;;;;;5011636;28;20238;-71
2021/01/26 01:42:35;;;;;;;23.63;12.57;;;1.80;99.90;;;;;;5013875;28;20211;-70
2021/01/26 01:45:01;;;;;;;21.17;11.50;;;1.70;99.90;;;;;;5011600;28;20213;-72
2021/01/26 01:47:30;;;;;;;21.57;12.40;;;1.80;99.90;;;;;;4999667;28;20239;-69
2021/01/26 01:49:59;;;;;;;24.60;12.47;;;1.80;99.90;;;;;;5005923;28;20601;-70
2021/01/26 01:52:32;;;;;;;21.67;12.17;;;1.80;99.90;;;;;;5005230;28;20299;-70
2021/01/26 01:55:05;;;;;;;19.87;11.70;;;1.80;99.90;;;;;;5008536;28;20216;-70
2021/01/26 01:57:34;;;;;;;24.07;12.20;;;1.80;99.90;;;;;;5011344;28;20225;-70
2021/01/26 02:00:07;;;;;;;23.57;12.90;;;1.80;99.90;;;;;;5014878;28;20676;-71
2021/01/26 02:02:34;;;;;;;22.67;12.43;;;1.80;99.90;;;;;;5015331;28;20209;-71
2021/01/26 02:05:03;;;;;;;20.80;11.63;;;1.80;99.90;;;;;;5015594;28;20218;-70
2021/01/26 02:07:33;;;;;;;22.30;12.13;;;1.80;99.90;;;;;;5007546;28;20200;-70
2021/01/26 02:09:59;;;;;;;20.83;11.87;;;1.70;99.90;;;;;;5010772;28;20208;-70
2021/01/26 02:12:26;;;;;;;21.30;12.30;;;1.80;99.90;;;;;;5014682;28;20302;-71
2021/01/26 02:14:56;;;;;;;23.00;11.97;;;1.80;99.90;;;;;;5011411;28;20264;-71
2021/01/26 02:17:35;;;;;;;22.03;12.10;;;1.80;99.90;;;;;;5014732;28;20235;-71
2021/01/26 02:20:44;;;;;;;22.27;12.37;;;1.80;99.90;;;;;;5007878;28;20207;-71
2021/01/26 02:23:51;;;;;;;20.87;11.93;;;1.80;99.90;;;;;;5009706;28;20294;-70
2021/01/26 02:26:49;;;;;;;24.70;12.17;;;1.80;99.90;;;;;;4972569;28;20301;-70
2021/01/26 02:29:22;;;;;;;22.60;12.40;;;1.80;99.90;;;;;;5015328;28;20203;-70
2021/01/26 02:32:10;;;;;;;21.33;12.10;;;1.80;99.90;;;;;;5005040;28;20204;-71
2021/01/26 02:35:17;;;;;;;23.90;12.80;;;1.80;99.90;;;;;;5005252;28;20207;-71
2021/01/26 02:38:25;;;;;;;20.13;11.27;;;1.80;99.90;;;;;;5013530;28;20210;-71
2021/01/26 02:40:56;;;;;;;20.93;12.27;;;1.80;99.90;;;;;;5010468;28;20203;-71
2021/01/26 02:44:01;;;;;;;23.07;12.23;;;1.80;99.90;;;;;;5006535;28;20258;-70
2021/01/26 02:46:40;;;;;;;21.83;11.93;;;1.80;99.90;;;;;;5001874;28;20206;-70
2021/01/26 02:49:16;;;;;;;21.60;11.63;;;1.80;99.90;;;;;;5011155;28;20203;-70
2021/01/26 02:51:52;;;;;;;18.90;10.87;;;1.80;99.90;;;;;;5013885;28;20202;-71
2021/01/26 02:54:27;;;;;;;21.27;12.40;;;1.80;99.90;;;;;;5010483;28;20298;-69
2021/01/26 02:57:01;;;;;;;19.53;12.03;;;1.80;99.90;;;;;;5010524;28;20238;-70
2021/01/26 02:59:32;;;;;;;22.50;12.97;;;1.80;99.90;;;;;;5014065;28;20207;-70
2021/01/26 03:02:06;;;;;;;20.33;12.63;;;1.80;99.90;;;;;;5000825;28;20684;-69
2021/01/26 03:04:38;;;;;;;23.47;11.83;;;1.80;99.90;;;;;;5002352;28;20206;-71
2021/01/26 03:07:08;;;;;;;23.47;12.67;;;1.90;99.90;;;;;;4999832;28;20212;-70
2021/01/26 03:09:39;;;;;;;19.03;12.03;;;1.90;99.90;;;;;;5007457;28;20233;-71
2021/01/26 03:12:14;;;;;;;22.73;12.27;;;2.00;99.90;;;;;;5000127;28;20294;-69
2021/01/26 03:14:44;;;;;;;20.57;12.27;;;1.90;99.90;;;;;;5006551;28;20203;-71
2021/01/26 03:17:20;;;;;;;18.53;11.60;;;1.90;99.90;;;;;;5013995;28;20250;-70
2021/01/26 03:19:49;;;;;;;18.93;11.70;;;1.90;99.90;;;;;;5007128;28;20242;-71
2021/01/26 03:22:19;;;;;;;21.00;11.50;;;1.90;99.90;;;;;;5008018;28;20207;-71
2021/01/26 03:24:46;;;;;;;23.27;12.23;;;1.90;99.90;;;;;;5013345;28;20211;-70
2021/01/26 03:27:16;;;;;;;19.70;12.03;;;1.90;99.90;;;;;;5014111;28;20678;-69
2021/01/26 03:29:46;;;;;;;20.77;12.20;;;1.90;99.90;;;;;;5007715;28;20208;-70
2021/01/26 03:32:16;;;;;;;18.70;11.13;;;1.90;99.90;;;;;;5003183;28;20203;-70
2021/01/26 03:34:43;;;;;;;19.60;11.67;;;1.90;99.90;;;;;;5013465;28;20211;-70
2021/01/26 03:37:09;;;;;;;19.90;11.37;;;1.80;99.90;;;;;;5014053;28;20218;-71
2021/01/26 03:39:36;;;;;;;22.13;12.03;;;1.90;99.90;;;;;;5014025;28;20253;-71
2021/01/26 03:42:05;;;;;;;20.37;11.93;;;1.90;99.90;;;;;;5009913;28;20221;-70
2021/01/26 03:44:32;;;;;;;19.03;11.40;;;1.90;99.90;;;;;;5013352;28;20226;-70
2021/01/26 03:47:31;;;;;;;19.40;11.40;;;1.90;99.90;;;;;;5014028;28;20208;-70
2021/01/26 03:50:20;;;;;;;22.20;11.17;;;1.90;99.90;;;;;;5003714;28;20298;-71
2021/01/26 03:53:10;;;;;;;18.37;10.70;;;1.90;99.90;;;;;;5001181;28;20207;-71
2021/01/26 03:55:44;;;;;;;19.67;11.63;;;1.90;99.90;;;;;;4995194;28;20241;-72
2021/01/26 03:58:22;;;;;;;20.60;11.60;;;1.80;99.90;;;;;;5011184;28;20205;-72
2021/01/26 04:00:55;;;;;;;19.20;10.93;;;1.80;99.90;;;;;;5013403;28;20203;-72
2021/01/26 04:03:47;;;;;;;23.53;11.63;;;1.80;99.90;;;;;;5001401;28;20203;-71
2021/01/26 04:06:33;;;;;;;18.00;10.47;;;1.80;99.90;;;;;;5007484;28;20584;-71
2021/01/26 04:09:05;;;;;;;20.53;11.13;;;1.80;99.90;;;;;;5013148;28;20322;-70
2021/01/26 04:11:37;;;;;;;16.20;11.23;;;1.80;99.90;;;;;;5011533;28;20265;-71
2021/01/26 04:14:07;;;;;;;21.20;11.43;;;1.80;99.90;;;;;;4996146;28;20675;-70
2021/01/26 04:16:40;;;;;;;19.37;11.03;;;1.80;99.90;;;;;;5001421;28;20235;-70
2021/01/26 04:19:08;;;;;;;18.33;11.57;;;1.80;99.90;;;;;;4994969;28;20235;-71
2021/01/26 04:21:37;;;;;;;18.83;11.23;;;1.80;99.90;;;;;;5004764;28;20214;-70
2021/01/26 04:24:04;;;;;;;22.27;11.03;;;1.80;99.90;;;;;;5000760;28;20245;-71
2021/01/26 04:26:34;;;;;;;20.53;10.40;;;1.80;99.90;;;;;;5006200;28;20577;-71
2021/01/26 04:29:00;;;;;;;22.17;11.63;;;1.70;99.90;;;;;;5007420;28;20649;-70
2021/01/26 04:31:27;;;;;;;18.77;10.27;;;1.80;99.90;;;;;;5000715;28;20314;-71
2021/01/26 04:33:54;;;;;;;19.63;10.83;;;1.70;99.90;;;;;;5007806;28;20207;-71
2021/01/26 04:36:22;;;;;;;20.57;10.63;;;1.70;99.90;;;;;;5012774;28;20314;-71
2021/01/26 04:38:49;;;;;;;18.53;10.23;;;1.70;99.90;;;;;;5013197;28;20203;-72
2021/01/26 04:41:27;;;;;;;18.40;10.63;;;1.70;99.90;;;;;;5010772;28;20298;-71
2021/01/26 04:44:18;;;;;;;17.60;10.27;;;1.70;99.90;;;;;;5008623;28;20294;-71
2021/01/26 04:46:49;;;;;;;19.03;10.63;;;1.70;99.90;;;;;;5011091;28;20203;-70
2021/01/26 04:49:23;;;;;;;19.40;10.40;;;1.70;99.90;;;;;;5013123;28;20206;-71
2021/01/26 04:51:59;;;;;;;19.70;10.80;;;1.70;99.90;;;;;;5003142;28;20298;-70
2021/01/26 04:54:37;;;;;;;17.53;9.87;;;1.70;99.90;;;;;;5012934;28;20529;-70
2021/01/26 04:57:19;;;;;;;17.70;9.90;;;1.60;99.90;;;;;;5008747;28;20677;-71
2021/01/26 05:00:00;;;;;;;18.03;10.60;;;1.70;99.90;;;;;;5009302;28;20209;-70
2021/01/26 05:03:03;;;;;;;16.37;9.77;;;1.60;99.90;;;;;;5013119;28;20669;-70
2021/01/26 05:05:34;;;;;;;18.83;10.23;;;1.60;99.90;;;;;;4969224;28;20203;-70
2021/01/26 05:08:06;;;;;;;14.93;9.73;;;1.60;99.90;;;;;;5016868;28;20214;-70
2021/01/26 05:10:38;;;;;;;17.23;9.97;;;1.60;99.90;;;;;;5017313;28;20199;-70
2021/01/26 05:13:07;;;;;;;15.87;9.87;;;1.50;99.90;;;;;;5004431;28;20212;-69
2021/01/26 05:15:39;;;;;;;16.70;10.40;;;1.60;99.90;;;;;;5016624;28;20223;-70
2021/01/26 05:18:12;;;;;;;15.93;9.70;;;1.60;99.90;;;;;;5016303;28;20898;-70
2021/01/26 05:20:42;;;;;;;17.37;10.13;;;1.60;99.90;;;;;;5016131;28;20219;-69
2021/01/26 05:23:14;;;;;;;19.20;11.53;;;1.60;99.90;;;;;;5011112;28;20644;-70
2021/01/26 05:25:40;;;;;;;16.40;10.03;;;1.60;99.90;;;;;;5016001;28;20195;-70
2021/01/26 05:28:08;;;;;;;21.20;10.93;;;1.60;99.90;;;;;;5011457;28;20330;-69
2021/01/26 05:30:37;;;;;;;18.10;10.60;;;1.60;99.90;;;;;;5011113;28;20290;-70
2021/01/26 05:33:07;;;;;;;16.60;10.57;;;1.60;99.90;;;;;;5013255;28;20211;-71
2021/01/26 05:35:33;;;;;;;14.80;9.80;;;1.60;99.90;;;;;;5006193;28;20219;-70
2021/01/26 05:38:01;;;;;;;18.87;11.20;;;1.60;99.90;;;;;;5015484;28;20215;-71
2021/01/26 05:40:30;;;;;;;17.57;10.67;;;1.60;99.90;;;;;;5014507;28;20581;-70
2021/01/26 05:42:59;;;;;;;18.00;10.93;;;1.60;99.90;;;;;;5008225;28;20698;-70
2021/01/26 05:45:27;;;;;;;18.03;11.07;;;1.60;99.90;;;;;;5010458;28;20636;-70
2021/01/26 05:48:07;;;;;;;19.10;10.97;;;1.70;99.90;;;;;;5015398;28;20319;-70
2021/01/26 05:50:36;;;;;;;16.47;10.83;;;1.60;99.90;;;;;;5015763;28;20707;-70
2021/01/26 05:53:14;;;;;;;16.33;10.43;;;1.60;99.90;;;;;;5016240;28;20671;-71
2021/01/26 05:55:46;;;;;;;17.70;10.63;;;1.60;99.90;;;;;;5009055;28;20311;-70
2021/01/26 05:58:14;;;;;;;16.03;10.07;;;1.60;99.90;;;;;;5016038;28;20208;-71
2021/01/26 06:00:41;;;;;;;14.77;9.30;;;1.50;99.90;;;;;;5004322;28;20208;-70
2021/01/26 06:03:12;;;;;;;17.17;9.97;;;1.50;99.90;;;;;;5006744;28;20209;-70
2021/01/26 06:05:40;;;;;;;15.83;9.80;;;1.50;99.90;;;;;;5015906;28;20210;-71
2021/01/26 06:08:10;;;;;;;17.43;9.93;;;1.50;99.90;;;;;;5005126;28;20219;-71
2021/01/26 06:10:38;;;;;;;15.23;9.37;;;1.50;99.90;;;;;;5014823;28;20203;-71
2021/01/26 06:13:05;;;;;;;17.20;9.57;;;1.60;99.90;;;;;;5008762;28;20210;-70
2021/01/26 06:15:37;;;;;;;13.73;8.63;;;1.50;99.90;;;;;;5001971;28;20258;-71
2021/01/26 06:18:13;;;;;;;16.50;10.63;;;1.50;99.90;;;;;;5012095;28;20298;-71
2021/01/26 06:20:41;;;;;;;15.90;10.57;;;1.50;99.90;;;;;;5002706;28;20211;-70
2021/01/26 06:23:20;;;;;;;15.57;9.70;;;1.50;99.90;;;;;;5008115;28;20284;-71
2021/01/26 06:25:53;;;;;;;15.70;9.90;;;1.50;99.90;;;;;;5016191;28;20203;-71
2021/01/26 06:28:32;;;;;;;15.57;10.07;;;1.50;99.90;;;;;;5003242;28;20204;-70
2021/01/26 06:31:05;;;;;;;15.90;9.73;;;1.50;99.90;;;;;;5014700;28;20741;-69
2021/01/26 06:33:57;;;;;;;15.07;9.67;;;1.50;99.90;;;;;;5003991;28;20386;-72
2021/01/26 06:36:53;;;;;;;14.77;9.13;;;1.50;99.90;;;;;;5008263;28;20359;-71
2021/01/26 06:39:48;;;;;;;15.57;9.37;;;1.50;99.90;;;;;;5001965;28;20254;-71
2021/01/26 06:42:28;;;;;;;14.57;9.23;;;1.50;99.90;;;;;;5001681;28;20224;-69
2021/01/26 06:45:21;;;;;;;16.00;9.83;;;1.50;99.90;;;;;;5015664;28;20207;-70
2021/01/26 06:48:15;;;;;;;12.87;9.70;;;1.40;99.90;;;;;;5014904;28;20211;-70
2021/01/26 06:51:05;;;;;;;13.33;8.40;;;1.40;99.90;;;;;;5008419;28;20199;-70
2021/01/26 06:53:42;;;;;;;13.83;8.30;;;1.40;99.90;;;;;;5004129;28;20253;-70
2021/01/26 06:56:33;;;;;;;13.90;8.67;;;1.40;99.90;;;;;;5001796;28;20215;-70
2021/01/26 06:59:25;;;;;;;11.30;7.60;;;1.40;99.90;;;;;;5015050;28;20652;-69
2021/01/26 07:02:30;;;;;;;13.13;8.00;;;1.40;99.90;;;;;;5002972;28;20204;-71
2021/01/26 07:05:18;;;;;;;9.60;6.57;;;1.40;99.90;;;;;;5008297;28;20261;-71
2021/01/26 07:08:25;;;;;;;11.23;7.47;;;1.40;99.90;;;;;;5006511;28;20715;-70
2021/01/26 07:11:21;;;;;;;14.00;7.50;;;1.40;99.90;;;;;;5006640;28;20210;-70
2021/01/26 07:13:56;;;;;;;13.67;7.60;;;1.40;99.90;;;;;;5006654;28;20213;-70
2021/01/26 07:16:52;;;;;;;12.63;8.47;;;1.40;99.90;;;;;;5004873;28;20757;-71
2021/01/26 07:19:49;;;;;;;17.47;9.47;;;1.40;99.90;;;;;;5003945;28;20215;-71
2021/01/26 07:22:41;;;;;;;12.67;8.00;;;1.40;99.90;;;;;;5009656;28;20244;-70
2021/01/26 07:25:22;;;;;;;14.53;9.07;;;1.40;99.90;;;;;;5008519;28;20257;-70
2021/01/26 07:28:11;;;;;;;13.37;8.67;;;1.40;99.90;;;;;;5008987;28;20211;-71
2021/01/26 07:30:43;;;;;;;13.23;8.20;;;1.40;99.90;;;;;;5011731;28;20211;-70
2021/01/26 07:33:15;;;;;;;12.67;8.23;;;1.40;99.90;;;;;;5008381;28;20286;-72
2021/01/26 07:35:55;;;;;;;14.77;8.00;;;1.40;99.90;;;;;;5012960;28;20578;-73
2021/01/26 07:38:30;;;;;;;11.97;7.70;;;1.50;99.90;;;;;;5014300;28;20586;-73
2021/01/26 07:41:03;;;;;;;16.90;8.53;;;1.50;99.90;;;;;;5006449;28;20829;-72
2021/01/26 07:43:38;;;;;;;14.97;8.70;;;1.40;99.90;;;;;;5014488;28;20294;-71
2021/01/26 07:46:09;;;;;;;14.93;8.10;;;1.50;99.90;;;;;;5013166;28;20199;-72
2021/01/26 07:48:47;;;;;;;15.07;7.93;;;1.50;99.90;;;;;;5014927;28;20559;-73
2021/01/26 07:51:20;;;;;;;15.33;8.03;;;1.50;99.90;;;;;;4991964;28;20210;-73
2021/01/26 07:53:56;;;;;;;17.70;8.47;;;1.50;99.90;;;;;;5007708;28;20203;-74
2021/01/26 07:56:30;;;;;;;12.17;7.87;;;1.50;99.90;;;;;;5004775;28;20234;-71
2021/01/26 07:59:01;;;;;;;14.00;7.80;;;1.50;99.90;;;;;;5014202;28;20968;-71
2021/01/26 08:01:34;;;;;;;15.37;8.40;;;1.50;99.90;;;;;;5010707;28;20221;-75
2021/01/26 08:04:05;;;;;;;14.03;7.90;;;1.50;99.90;;;;;;5005303;28;20219;-76
2021/01/26 08:06:46;;;;;;;15.50;8.03;;;1.50;99.90;;;;;;5013352;28;20207;-75
2021/01/26 08:09:19;;;;;;;15.43;8.53;;;1.50;99.90;;;;;;5013235;28;20618;-72
2021/01/26 08:12:08;;;;;;;15.37;8.00;;;1.60;99.90;;;;;;5011566;28;20286;-73
2021/01/26 08:14:41;;;;;;;14.03;7.83;;;1.60;99.90;;;;;;5002351;28;20246;-71
2021/01/26 08:17:11;;;;;;;18.97;8.67;;;1.60;99.90;;;;;;5008943;28;20270;-73
2021/01/26 08:19:43;;;;;;;15.33;8.57;;;1.50;99.90;;;;;;5013614;28;20207;-73
2021/01/26 08:22:30;;;;;;;15.97;9.37;;;1.60;99.90;;;;;;5010602;28;20289;-72
2021/01/26 08:25:04;;;;;;;15.03;8.80;;;1.60;99.90;;;;;;4999555;28;20207;-74
2021/01/26 08:27:49;;;;;;;15.83;8.80;;;1.60;99.90;;;;;;4997941;28;20277;-73
2021/01/26 08:30:24;;;;;;;19.03;8.80;;;1.60;99.90;;;;;;5008927;28;20213;-74
2021/01/26 08:33:08;;;;;;;22.33;9.63;;;1.60;99.90;;;;;;5003193;28;20218;-72
2021/01/26 08:36:00;;;;;;;18.40;9.53;;;1.60;99.90;;;;;;5007773;28;20302;-73
2021/01/26 08:38:47;;;;;;;18.33;9.60;;;1.70;99.90;;;;;;4998355;28;20736;-70
2021/01/26 08:41:48;;;;;;;19.40;9.80;;;1.70;99.90;;;;;;5007700;28;20207;-73
2021/01/26 08:44:51;;;;;;;18.33;9.93;;;1.70;99.90;;;;;;5018462;28;20717;-72
2021/01/26 08:47:50;;;;;;;18.70;9.00;;;1.70;99.90;;;;;;5014730;28;20679;-75
2021/01/26 08:50:33;;;;;;;19.63;9.30;;;1.80;99.90;;;;;;5018270;28;20203;-74
2021/01/26 08:53:20;;;;;;;18.80;8.73;;;1.90;99.90;;;;;;5006303;28;20199;-75
2021/01/26 08:55:48;;;;;;;14.40;8.63;;;1.90;99.90;;;;;;5012350;28;20227;-73
2021/01/26 08:58:38;;;;;;;14.00;8.00;;;1.90;99.90;;;;;;5010395;28;20261;-74
2021/01/26 09:01:07;;;;;;;14.17;7.67;;;2.00;99.90;;;;;;5012819;28;20303;-72
2021/01/26 09:03:40;;;;;;;15.90;8.87;;;2.00;99.90;;;;;;5014156;28;20214;-74
2021/01/26 09:06:10;;;;;;;14.03;7.53;;;2.10;99.90;;;;;;5016403;28;20281;-74
2021/01/26 09:08:55;;;;;;;12.90;7.63;;;2.10;99.90;;;;;;5006511;28;20212;-74
2021/01/26 09:11:36;;;;;;;17.70;8.30;;;2.20;99.90;;;;;;5010996;28;20215;-75
2021/01/26 09:14:23;;;;;;;11.60;7.07;;;2.20;99.90;;;;;;5010297;28;20329;-79
2021/01/26 09:16:59;;;;;;;12.83;7.87;;;2.30;99.90;;;;;;5014446;28;21372;-76
2021/01/26 09:19:31;;;;;;;14.10;8.27;;;2.40;99.90;;;;;;5007271;28;20649;-72
2021/01/26 09:22:05;;;;;;;16.73;7.70;;;2.50;99.90;;;;;;5015811;28;20287;-76
2021/01/26 09:24:33;;;;;;;12.60;6.80;;;2.70;99.90;;;;;;5015494;28;20269;-75
2021/01/26 09:27:18;;;;;;;17.13;7.93;;;2.90;99.90;;;;;;5009519;28;20206;-75
2021/01/26 09:29:45;;;;;;;15.30;7.70;;;3.00;99.90;;;;;;5014113;28;20211;-73
2021/01/26 09:32:12;;;;;;;14.83;8.73;;;3.00;99.90;;;;;;5015784;28;20703;-74
2021/01/26 09:34:40;;;;;;;13.63;8.10;;;3.00;99.90;;;;;;5003177;28;20215;-74
2021/01/26 09:37:12;;;;;;;15.50;8.40;;;3.00;99.90;;;;;;5013434;28;20747;-71
2021/01/26 09:39:39;;;;;;;15.57;8.30;;;2.90;99.90;;;;;;5013970;28;20218;-73
2021/01/26 09:42:19;;;;;;;17.40;9.00;;;2.90;99.90;;;;;;5016194;28;20211;-73
2021/01/26 09:45:00;;;;;;;15.50;9.03;;;2.90;99.90;;;;;;5016242;28;20265;-73
2021/01/26 09:47:28;;;;;;;17.40;8.50;;;2.90;99.90;;;;;;5016744;28;20298;-73
2021/01/26 09:50:06;;;;;;;16.43;7.27;;;2.90;99.90;;;;;;5011610;28;20251;-70
2021/01/26 09:52:32;;;;;;;15.63;8.53;;;2.80;99.90;;;;;;5009778;28;20286;-75
2021/01/26 09:55:05;;;;;;;16.77;9.53;;;2.80;99.90;;;;;;5009592;28;20294;-76
2021/01/26 09:57:35;;;;;;;17.10;9.30;;;2.80;99.90;;;;;;5015972;28;20216;-74
2021/01/26 10:00:05;;;;;;;14.80;8.63;;;2.80;99.90;;;;;;5015404;28;20614;-76
2021/01/26 10:02:32;;;;;;;15.23;9.13;;;2.70;99.90;;;;;;5013117;28;20215;-75
2021/01/26 10:05:01;;;;;;;19.07;9.50;;;2.70;99.90;;;;;;5003801;28;20294;-75
2021/01/26 10:07:28;;;;;;;18.50;9.27;;;2.70;99.90;;;;;;5006712;28;20215;-76
2021/01/26 10:10:12;;;;;;;17.00;8.33;;;2.70;99.90;;;;;;5010522;28;20271;-75
2021/01/26 10:12:40;;;;;;;17.90;9.17;;;2.70;99.90;;;;;;5012703;28;20252;-74
2021/01/26 10:15:33;;;;;;;15.37;8.60;;;2.80;99.90;;;;;;5012884;28;20207;-72
2021/01/26 10:18:07;;;;;;;16.47;8.33;;;2.80;99.90;;;;;;5014151;28;20234;-73
2021/01/26 10:20:48;;;;;;;12.87;7.50;;;2.80;99.90;;;;;;5016373;28;20602;-73
2021/01/26 10:23:23;;;;;;;17.63;7.97;;;2.80;99.90;;;;;;5008104;28;20206;-74
2021/01/26 10:25:50;;;;;;;14.23;7.70;;;3.00;99.90;;;;;;5013648;28;20290;-75
2021/01/26 10:28:25;;;;;;;15.37;8.70;;;2.90;99.90;;;;;;5014378;28;20243;-75
2021/01/26 10:30:53;;;;;;;14.87;7.13;;;2.90;99.90;;;;;;4988084;28;20198;-77
2021/01/26 10:33:34;;;;;;;13.30;7.37;;;2.90;99.90;;;;;;5013701;28;20257;-78
2021/01/26 10:36:31;;;;;;;11.90;6.63;;;3.10;99.90;;;;;;5012435;28;20218;-75
2021/01/26 10:39:00;;;;;;;14.80;7.00;;;3.10;99.90;;;;;;5013652;28;20567;-74
2021/01/26 10:41:29;;;;;;;13.93;7.07;;;3.10;99.90;;;;;;5012541;28;20223;-74
2021/01/26 10:44:05;;;;;;;10.83;6.27;;;3.00;99.90;;;;;;5013077;28;20691;-73
2021/01/26 10:46:35;;;;;;;10.93;6.10;;;3.00;99.90;;;;;;5011075;28;20282;-75
2021/01/26 10:49:16;;;;;;;10.63;6.50;;;3.00;99.90;;;;;;5006620;28;20302;-74
2021/01/26 10:51:44;;;;;;;10.53;6.37;;;2.90;99.90;;;;;;5009816;28;20203;-73
2021/01/26 10:54:12;;;;;;;11.97;6.90;;;2.90;99.90;;;;;;5012646;28;20301;-73
2021/01/26 10:56:39;;;;;;;10.73;6.30;;;2.80;99.90;;;;;;5010946;28;20229;-75
2021/01/26 10:59:06;;;;;;;12.43;7.10;;;2.90;99.90;;;;;;5009155;28;20262;-75
2021/01/26 11:01:35;;;;;;;8.87;5.93;;;2.80;99.90;;;;;;5009926;28;20254;-75
2021/01/26 11:04:01;;;;;;;13.13;6.73;;;2.80;99.90;;;;;;5009402;28;20675;-74
2021/01/26 11:06:28;;;;;;;10.57;6.73;;;2.70;99.90;;;;;;5007905;28;20243;-75
2021/01/26 11:08:55;;;;;;;12.00;7.60;;;2.70;99.90;;;;;;5002751;28;20282;-75
2021/01/26 11:11:25;;;;;;;12.27;7.10;;;2.70;99.90;;;;;;4998086;28;20215;-74
2021/01/26 11:13:53;;;;;;;12.67;7.23;;;2.60;99.90;;;;;;5001048;28;20211;-74
2021/01/26 11:16:20;;;;;;;13.70;8.57;;;2.70;99.90;;;;;;5013598;28;20234;-75
2021/01/26 11:18:47;;;;;;;16.73;9.07;;;2.60;99.90;;;;;;5000939;28;20389;-74
2021/01/26 11:21:13;;;;;;;14.33;9.17;;;2.70;99.90;;;;;;5006887;28;20298;-75
2021/01/26 11:23:40;;;;;;;18.00;9.63;;;2.70;99.90;;;;;;5004042;28;20238;-76
2021/01/26 11:26:10;;;;;;;17.93;9.57;;;2.80;99.90;;;;;;5007278;28;20716;-78
2021/01/26 11:28:37;;;;;;;17.53;10.17;;;2.80;99.90;;;;;;4997922;28;20248;-75
2021/01/26 11:31:04;;;;;;;18.57;10.03;;;2.90;99.90;;;;;;5011987;28;20235;-76
2021/01/26 11:33:31;;;;;;;18.20;10.87;;;2.90;99.90;;;;;;5005091;28;20207;-76
2021/01/26 11:35:58;;;;;;;17.73;10.27;;;2.90;99.90;;;;;;5004171;28;20254;-74
2021/01/26 11:38:25;;;;;;;18.73;10.07;;;2.90;99.90;;;;;;5002956;28;20208;-72
2021/01/26 11:40:52;;;;;;;17.13;10.50;;;2.90;99.90;;;;;;5011817;28;20572;-75
2021/01/26 11:43:19;;;;;;;16.70;9.83;;;2.90;99.90;;;;;;5012820;28;20227;-74
2021/01/26 11:45:46;;;;;;;19.50;10.30;;;3.10;99.90;;;;;;5012162;28;20266;-71
2021/01/26 11:48:13;;;;;;;15.13;10.77;;;3.00;99.90;;;;;;5009364;28;20204;-76
2021/01/26 11:50:40;;;;;;;17.03;10.37;;;3.00;99.90;;;;;;5001475;28;20294;-75
2021/01/26 11:53:11;;;;;;;19.07;9.77;;;3.00;99.90;;;;;;5014461;28;20215;-76
2021/01/26 11:55:38;;;;;;;18.40;10.57;;;3.00;99.90;;;;;;5006656;28;20219;-76
2021/01/26 11:58:04;;;;;;;19.03;10.20;;;3.00;99.90;;;;;;5009319;28;20271;-76
2021/01/26 12:00:33;;;;;;;19.90;10.80;;;3.00;99.90;;;;;;5012827;28;20286;-75
2021/01/26 12:03:01;;;;;;;18.13;10.17;;;2.90;99.90;;;;;;5012394;28;20211;-72
2021/01/26 12:05:29;;;;;;;20.37;10.97;;;2.90;99.90;;;;;;5002651;28;20648;-73
2021/01/26 12:07:56;;;;;;;17.07;10.07;;;2.80;99.90;;;;;;5003204;28;20200;-70
2021/01/26 12:10:23;;;;;;;17.83;9.90;;;2.90;99.90;;;;;;5011033;28;20618;-73
2021/01/26 12:12:56;;;;;;;19.17;10.33;;;2.90;99.90;;;;;;5011634;28;20679;-70
2021/01/26 12:15:25;;;;;;;18.60;10.10;;;2.80;99.90;;;;;;4998782;28;20286;-70
2021/01/26 12:17:52;;;;;;;16.40;9.30;;;2.80;99.90;;;;;;5006289;28;20650;-72
2021/01/26 12:20:20;;;;;;;15.77;9.97;;;2.80;99.90;;;;;;5009608;28;20200;-71
2021/01/26 12:22:46;;;;;;;16.17;9.63;;;2.70;99.90;;;;;;4994326;28;20216;-72
2021/01/26 12:25:15;;;;;;;16.30;10.23;;;2.70;99.90;;;;;;5007809;28;20569;-72
2021/01/26 12:27:45;;;;;;;18.47;9.80;;;2.70;99.90;;;;;;5013870;28;20207;-73
2021/01/26 12:30:13;;;;;;;15.77;9.30;;;2.80;99.90;;;;;;5012971;28;20215;-73
2021/01/26 12:32:40;;;;;;;17.80;9.93;;;2.80;99.90;;;;;;5010402;28;20239;-72
2021/01/26 12:35:11;;;;;;;16.43;9.53;;;2.80;99.90;;;;;;5002655;28;20289;-72
2021/01/26 12:37:38;;;;;;;14.17;9.10;;;2.80;99.90;;;;;;4998251;28;20250;-70
2021/01/26 12:40:06;;;;;;;13.77;8.77;;;2.70;99.90;;;;;;5002028;28;20212;-71
2021/01/26 12:42:32;;;;;;;15.87;8.63;;;2.70;99.90;;;;;;5002279;28;20675;-72
2021/01/26 12:44:59;;;;;;;14.67;9.07;;;2.70;99.90;;;;;;5002449;28;20272;-72
2021/01/26 12:47:27;;;;;;;18.90;9.03;;;2.70;99.90;;;;;;5009424;28;20295;-72
2021/01/26 12:49:54;;;;;;;15.17;8.53;;;2.70;99.90;;;;;;5012785;28;20265;-71
2021/01/26 12:52:21;;;;;;;15.17;8.80;;;2.70;99.90;;;;;;5010585;28;20221;-72
2021/01/26 12:54:48;;;;;;;15.93;9.07;;;2.70;99.90;;;;;;5009898;28;20254;-74
2021/01/26 12:57:15;;;;;;;16.43;9.53;;;2.70;99.90;;;;;;5013614;28;20237;-72
2021/01/26 12:59:42;;;;;;;13.53;8.67;;;2.70;99.90;;;;;;5000350;28;20270;-75
2021/01/26 13:02:08;;;;;;;17.47;8.70;;;2.70;99.90;;;;;;5011978;28;20221;-72
2021/01/26 13:04:35;;;;;;;14.27;8.57;;;2.60;99.90;;;;;;5012629;28;20269;-69
2021/01/26 13:07:01;;;;;;;16.67;8.67;;;2.60;99.90;;;;;;4999537;28;20204;-74
2021/01/26 13:09:28;;;;;;;15.43;9.10;;;2.60;99.90;;;;;;5013432;28;20235;-74
2021/01/26 13:11:55;;;;;;;16.67;8.53;;;2.70;99.90;;;;;;5009025;28;20294;-72
2021/01/26 13:14:21;;;;;;;17.97;8.37;;;2.70;99.90;;;;;;5011137;28;20290;-73
2021/01/26 13:16:47;;;;;;;14.30;8.90;;;2.70;99.90;;;;;;5012875;28;20231;-71